Home   Weather   Spain   Sevilla   Past weeks
Flag for Spain

Past Weather in Sevilla, Spain — July 2019

Currently: 46 °F. Clear. (Weather station: Sevilla / San Pablo, Spain). See more current weather

July 2019 Weather in Sevilla — Graph

°F

High & Low Weather Summary for July 2019

 TemperatureHumidityPressure
High106 °F (Jul 11, 5:00 pm)94% (Jul 7, 8:00 am)30.07 "Hg (Jul 7, 8:00 am)
Low64 °F (Jul 5, 5:30 am)8% (Jul 30, 7:00 pm)29.77 "Hg (Jul 19, 4:30 pm)
Average80 °F56%29.93 "Hg
* Reported Jul 1 12:00 am — Jul 31 11:30 pm, Sevilla. Weather by CustomWeather, © 2021

Note: Actual official high and low records may vary slightly from our data, if they occured in-between our weather recording intervals... More about our weather records

Sevilla Weather History for July 1, 2019

Scroll right to see more
 ConditionsComfort  
Time TempWeatherWind HumidityBarometerVisibility
12:00 am
Mon, Jul 1
73 °FPassing clouds.13 mph83%30.07 "HgN/A
12:30 am73 °FPassing clouds.10 mph83%30.07 "HgN/A
1:00 am72 °FPassing clouds.12 mph88%30.07 "HgN/A
1:30 am72 °FMild.9 mph88%30.07 "HgN/A
2:00 am72 °FMild.9 mph88%30.07 "HgN/A
2:30 am72 °FPassing clouds.9 mph88%30.07 "HgN/A
3:00 am72 °FPassing clouds.10 mph88%30.07 "Hg6 mi
3:30 am72 °FPassing clouds.7 mph88%30.07 "Hg6 mi
4:00 am72 °FPassing clouds.6 mph88%30.07 "Hg6 mi
4:30 am72 °FPassing clouds.6 mph88%30.07 "Hg5 mi
5:00 am72 °FPassing clouds.6 mph88%30.07 "Hg6 mi
5:30 am72 °FPassing clouds.7 mph88%30.04 "Hg6 mi
6:00 am72 °FPassing clouds.7 mph83%30.04 "HgN/A
6:30 am72 °FOvercast.6 mph83%30.04 "HgN/A
6:44 am72 °FOvercast.5 mph83%30.04 "HgN/A
7:00 am72 °FOvercast.6 mph83%30.04 "HgN/A
7:30 am72 °FOvercast.6 mph83%30.07 "HgN/A
8:00 am72 °FOvercast.6 mph83%30.07 "HgN/A
8:30 am73 °FOvercast.6 mph78%30.07 "HgN/A
9:00 am73 °FOvercast.5 mph78%30.07 "HgN/A
9:30 am73 °FOvercast.5 mph78%30.07 "HgN/A
10:00 am73 °FPartly sunny.2 mph78%30.07 "HgN/A
10:30 am75 °FPartly sunny.3 mph74%30.07 "HgN/A
11:00 am77 °FScattered clouds.6 mph65%30.07 "HgN/A
11:30 am79 °FPassing clouds.6 mph65%30.07 "HgN/A
12:00 pm79 °FPassing clouds.6 mph61%30.07 "HgN/A
12:30 pm81 °FPassing clouds.7 mph62%30.07 "HgN/A
1:00 pm82 °FPassing clouds.8 mph58%30.07 "HgN/A
1:30 pm84 °FPassing clouds.9 mph55%30.04 "HgN/A
2:00 pm84 °FPassing clouds.9 mph51%30.04 "HgN/A
2:30 pm86 °FPassing clouds.8 mph52%30.04 "HgN/A
3:00 pm88 °FPassing clouds.7 mph46%30.01 "HgN/A
3:30 pm90 °FPassing clouds.7 mph43%30.01 "HgN/A
4:00 pm91 °FPassing clouds.8 mph41%30.01 "HgN/A
4:30 pm91 °FPassing clouds.9 mph44%29.98 "HgN/A
5:00 pm93 °FPassing clouds.10 mph41%29.98 "HgN/A
5:30 pm93 °FPassing clouds.13 mph44%29.98 "HgN/A
6:00 pm91 °FSunny.16 mph41%29.98 "Hg10 mi
6:30 pm91 °FSunny.16 mph38%29.95 "Hg10 mi
7:00 pm91 °FPassing clouds.15 mph38%29.95 "HgN/A
7:30 pm90 °FPassing clouds.14 mph41%29.92 "HgN/A
8:00 pm88 °FPassing clouds.14 mph43%29.92 "HgN/A
8:30 pm86 °FPassing clouds.17 mph46%29.92 "HgN/A
9:00 pm84 °FSunny.15 mph51%29.92 "Hg10 mi
9:30 pm82 °FPassing clouds.13 mph51%29.95 "HgN/A
10:00 pm81 °FPassing clouds.12 mph54%29.95 "HgN/A
10:30 pm79 °FClear.15 mph51%29.95 "Hg10 mi
11:00 pm79 °FPassing clouds.12 mph51%29.98 "HgN/A
11:30 pm77 °FPassing clouds.8 mph57%29.98 "HgN/A
Weather by CustomWeather, © 2021

See weather overview